createdAt,value
2018-09-10T00:03:42.080Z,13.80
2018-09-10T00:08:46.558Z,13.70
2018-09-10T00:13:50.117Z,13.50
2018-09-10T00:23:56.401Z,13.60
2018-09-10T00:28:59.661Z,13.50
2018-09-10T00:34:02.920Z,13.40
2018-09-10T00:39:09.242Z,13.30
2018-09-10T00:44:12.498Z,13.30
2018-09-10T00:49:15.765Z,13.30
2018-09-10T00:54:19.034Z,13.10
2018-09-10T00:59:22.326Z,13.00
2018-09-10T01:09:28.601Z,13.10
2018-09-10T01:14:31.861Z,13.00
2018-09-10T01:19:35.659Z,13.00
2018-09-10T01:24:38.906Z,12.80
2018-09-10T01:29:42.161Z,12.80
2018-09-10T01:34:50.825Z,12.80
2018-09-10T01:39:54.092Z,12.80
2018-09-10T01:44:57.711Z,12.70
2018-09-10T01:50:00.963Z,12.80
2018-09-10T01:55:04.256Z,12.40
2018-09-10T02:00:07.536Z,12.40
2018-09-10T02:05:10.797Z,12.40
2018-09-10T02:10:14.073Z,12.50
2018-09-10T02:15:17.343Z,12.50
2018-09-10T02:20:20.682Z,12.40
2018-09-10T02:25:23.889Z,12.30
2018-09-10T02:30:27.183Z,12.20
2018-09-10T02:35:30.455Z,12.20
2018-09-10T02:40:33.722Z,12.10
2018-09-10T02:45:36.988Z,12.10
2018-09-10T02:50:40.276Z,12.00
2018-09-10T02:55:43.559Z,12.10
2018-09-10T03:00:46.887Z,12.00
2018-09-10T03:05:50.163Z,12.00
2018-09-10T03:15:56.424Z,11.90
2018-09-10T03:20:59.724Z,11.90
2018-09-10T03:26:03.036Z,11.90
2018-09-10T03:31:06.414Z,11.70
2018-09-10T03:36:09.709Z,11.70
2018-09-10T03:41:13.012Z,11.70
2018-09-10T03:46:16.284Z,11.60
2018-09-10T03:51:19.550Z,11.70
2018-09-10T03:56:23.072Z,11.80
2018-09-10T04:01:28.383Z,11.80
2018-09-10T04:06:31.721Z,11.80
2018-09-10T04:11:35.088Z,11.70
2018-09-10T04:21:41.383Z,11.50
2018-09-10T04:26:44.677Z,11.50
2018-09-10T04:31:48.147Z,11.60
2018-09-10T04:36:51.408Z,11.50
2018-09-10T04:41:54.725Z,11.50
2018-09-10T04:46:57.984Z,11.40
2018-09-10T04:52:01.279Z,11.40
2018-09-10T04:57:04.617Z,11.30
2018-09-10T05:02:07.911Z,11.30
2018-09-10T05:07:11.177Z,11.20
2018-09-10T05:12:14.460Z,11.20
2018-09-10T05:17:17.753Z,11.50
2018-09-10T05:22:21.032Z,11.70
2018-09-10T05:27:24.313Z,12.00
2018-09-10T05:32:27.595Z,12.00
2018-09-10T05:37:30.903Z,12.70
2018-09-10T05:42:34.213Z,13.10
2018-09-10T05:47:37.594Z,13.00
2018-09-10T05:52:40.881Z,13.00
2018-09-10T05:57:44.187Z,13.00
2018-09-10T06:02:47.460Z,13.60
2018-09-10T06:07:50.734Z,14.30
2018-09-10T06:12:54.035Z,14.80
2018-09-10T06:17:57.303Z,15.80
2018-09-10T06:23:00.588Z,16.20
2018-09-10T06:28:03.891Z,16.90
2018-09-10T06:33:07.192Z,17.30
2018-09-10T06:38:10.475Z,17.30
2018-09-10T06:43:13.787Z,17.60
2018-09-10T06:48:17.074Z,18.10
2018-09-10T06:53:20.426Z,18.40
2018-09-10T06:58:23.665Z,18.50
2018-09-10T07:03:27.062Z,18.60
2018-09-10T07:08:30.342Z,19.00
2018-09-10T07:13:33.693Z,19.20
2018-09-10T07:18:37.061Z,19.20
2018-09-10T07:23:41.886Z,18.90
2018-09-10T07:28:46.144Z,19.10
2018-09-10T07:33:49.403Z,19.10
2018-09-10T07:38:52.659Z,19.00
2018-09-10T07:43:56.020Z,18.40
2018-09-10T07:48:59.202Z,19.30
2018-09-10T07:54:02.457Z,19.60
2018-09-10T07:59:05.796Z,20.40
2018-09-10T08:04:09.054Z,20.20
2018-09-10T08:09:19.001Z,20.20
2018-09-10T08:14:22.218Z,20.40
2018-09-10T08:19:27.521Z,21.10
2018-09-10T08:24:30.894Z,21.60
2018-09-10T08:29:34.269Z,21.30
2018-09-10T08:34:37.545Z,20.30
2018-09-10T08:39:40.796Z,19.40
2018-09-10T08:44:44.073Z,21.30
2018-09-10T08:49:47.665Z,22.10
2018-09-10T08:54:51.379Z,22.60
2018-09-10T08:59:54.228Z,23.00
2018-09-10T09:04:57.489Z,23.40
2018-09-10T09:10:00.740Z,21.70
2018-09-10T09:15:04.537Z,21.00
2018-09-10T09:20:07.852Z,21.60
2018-09-10T09:25:11.684Z,22.60
2018-09-10T09:30:15.007Z,22.00
2018-09-10T09:35:22.502Z,21.80
2018-09-10T09:42:35.840Z,22.10
2018-09-10T09:47:39.108Z,23.20
2018-09-10T09:52:43.686Z,24.30
2018-09-10T09:57:46.996Z,25.10
2018-09-10T10:02:55.628Z,25.60
2018-09-10T10:07:59.140Z,25.70
2018-09-10T10:13:04.460Z,26.40
2018-09-10T10:18:07.741Z,26.50
2018-09-10T10:23:12.147Z,25.30
2018-09-10T10:28:15.708Z,25.00
2018-09-10T10:33:19.970Z,26.70
2018-09-10T10:38:23.264Z,27.60
2018-09-10T10:43:26.533Z,27.10
2018-09-10T10:48:29.815Z,28.10
2018-09-10T10:53:33.150Z,28.60
2018-09-10T10:58:36.402Z,28.20
2018-09-10T11:03:39.655Z,28.70
2018-09-10T11:08:43.912Z,28.60
2018-09-10T11:13:47.212Z,26.40
2018-09-10T11:18:50.485Z,26.40
2018-09-10T11:23:53.781Z,26.70
2018-09-10T11:34:00.128Z,26.40
2018-09-10T11:39:03.596Z,26.50
2018-09-10T11:44:07.012Z,25.50
2018-09-10T11:49:10.291Z,25.20
2018-09-10T11:54:13.584Z,25.20
2018-09-10T11:59:16.956Z,25.90
2018-09-10T12:04:20.243Z,26.00
2018-09-10T12:09:23.509Z,26.10
2018-09-10T12:14:33.493Z,26.70
2018-09-10T12:19:36.787Z,26.60
2018-09-10T12:24:40.136Z,26.60
2018-09-10T12:29:43.545Z,27.20
2018-09-10T12:34:46.815Z,26.50
2018-09-10T12:39:50.096Z,27.00
2018-09-10T12:49:56.390Z,25.50
2018-09-10T12:54:59.692Z,25.50
2018-09-10T13:00:02.984Z,25.50
2018-09-10T13:05:06.255Z,26.20
2018-09-10T13:10:10.345Z,26.30
2018-09-10T13:15:13.644Z,26.40
2018-09-10T13:20:16.944Z,27.00
2018-09-10T13:25:20.293Z,26.10
2018-09-10T13:30:23.548Z,25.80
2018-09-10T13:35:26.816Z,26.00
2018-09-10T13:40:30.073Z,25.60
2018-09-10T13:45:33.339Z,26.20
2018-09-10T13:50:36.597Z,26.20
2018-09-10T13:55:39.883Z,26.50
2018-09-10T14:00:43.149Z,27.40
2018-09-10T14:05:46.415Z,26.20
2018-09-10T14:10:49.700Z,25.60
2018-09-10T14:15:52.930Z,25.70
2018-09-10T14:20:56.196Z,25.30
2018-09-10T14:25:59.475Z,26.00
2018-09-10T14:31:02.760Z,26.10
2018-09-10T14:36:06.104Z,25.80
2018-09-10T14:41:09.413Z,25.80
2018-09-10T14:46:12.699Z,26.60
2018-09-10T14:51:15.971Z,26.50
2018-09-10T14:56:19.261Z,26.30
2018-09-10T15:01:23.288Z,25.80
2018-09-10T15:06:27.645Z,26.20
2018-09-10T15:11:31.672Z,26.20
2018-09-10T15:16:34.969Z,25.90
2018-09-10T15:21:38.259Z,24.70
2018-09-10T15:26:41.548Z,24.70
2018-09-10T15:31:44.864Z,24.70
2018-09-10T15:36:48.142Z,25.00
2018-09-10T15:41:51.561Z,24.90
2018-09-10T15:46:54.982Z,24.70
2018-09-10T15:51:58.256Z,24.70
2018-09-10T15:57:01.564Z,24.60
2018-09-10T16:02:04.896Z,24.50
2018-09-10T16:07:08.205Z,24.50
2018-09-10T16:12:11.496Z,24.20
2018-09-10T16:17:14.768Z,24.00
2018-09-10T16:22:18.168Z,24.10
2018-09-10T16:27:21.472Z,23.90
2018-09-10T16:32:24.756Z,23.60
2018-09-10T16:37:28.046Z,23.40
2018-09-10T16:42:31.412Z,23.20
2018-09-10T16:47:34.717Z,23.20
2018-09-10T16:52:38.019Z,23.00
2018-09-10T17:02:44.484Z,22.50
2018-09-10T17:12:50.815Z,22.30
2018-09-10T17:17:54.163Z,22.20
2018-09-10T17:22:57.524Z,22.10
2018-09-10T17:28:00.719Z,22.10
2018-09-10T17:33:04.004Z,22.00
2018-09-10T17:38:07.279Z,21.80
2018-09-10T17:48:14.080Z,21.60
2018-09-10T17:53:17.474Z,21.50
2018-09-10T17:58:20.884Z,21.30
2018-09-10T18:03:24.152Z,21.20
2018-09-10T18:08:27.429Z,21.10
2018-09-10T18:13:30.700Z,21.00
2018-09-10T18:18:34.028Z,20.90
2018-09-10T18:23:37.328Z,20.90
2018-09-10T18:33:44.258Z,20.90
2018-09-10T18:43:50.699Z,21.00
2018-09-10T18:48:54.023Z,21.00
2018-09-10T18:53:57.264Z,21.00
2018-09-10T18:59:07.287Z,20.90
2018-09-10T19:04:10.584Z,20.60
2018-09-10T19:09:13.871Z,20.40
2018-09-10T19:14:17.258Z,20.40
2018-09-10T19:19:20.531Z,20.20
2018-09-10T19:24:23.791Z,20.10
2018-09-10T19:29:27.067Z,20.10
2018-09-10T19:34:30.344Z,20.00
2018-09-10T19:39:33.620Z,19.90
2018-09-10T19:44:37.092Z,19.80
2018-09-10T19:49:40.376Z,19.70
2018-09-10T19:54:45.683Z,19.50
2018-09-10T19:59:49.424Z,19.30
2018-09-10T20:04:53.595Z,19.20
2018-09-10T20:09:57.824Z,19.00
2018-09-10T20:15:02.287Z,18.80
2018-09-10T20:20:07.157Z,18.60
2018-09-10T20:25:11.443Z,18.60
2018-09-10T20:30:15.212Z,18.30
2018-09-10T20:35:18.556Z,18.20
2018-09-10T20:40:22.402Z,18.20
2018-09-10T20:45:26.436Z,18.20
2018-09-10T20:50:30.287Z,18.00
2018-09-10T20:55:34.276Z,17.90
2018-09-10T21:00:38.857Z,17.90
2018-09-10T21:05:42.824Z,17.90
2018-09-10T21:10:47.046Z,18.00
2018-09-10T21:15:50.432Z,18.10
2018-09-10T21:20:56.504Z,18.00
2018-09-10T21:26:01.322Z,17.70
2018-09-10T21:31:04.812Z,17.70
2018-09-10T21:36:08.580Z,17.70
2018-09-10T21:41:12.393Z,17.60
2018-09-10T21:46:19.848Z,17.60
2018-09-10T21:51:23.963Z,17.70
2018-09-10T21:56:27.763Z,17.70
2018-09-10T22:01:31.564Z,17.70
2018-09-10T22:06:34.881Z,17.60
2018-09-10T22:11:43.653Z,17.50
2018-09-10T22:16:46.955Z,17.50
2018-09-10T22:21:50.240Z,17.40
2018-09-10T22:26:53.595Z,17.40
2018-09-10T22:31:56.913Z,17.10
2018-09-10T22:37:00.177Z,17.10
2018-09-10T22:42:03.470Z,17.00
2018-09-10T22:47:06.737Z,17.00
2018-09-10T22:52:10.013Z,16.90
2018-09-10T22:57:13.267Z,16.70
2018-09-10T23:02:16.527Z,16.70
2018-09-10T23:07:19.790Z,16.70
2018-09-10T23:12:23.087Z,16.70
2018-09-10T23:17:26.343Z,16.50
2018-09-10T23:22:29.607Z,16.50
2018-09-10T23:27:34.907Z,16.40
2018-09-10T23:32:38.207Z,16.40
2018-09-10T23:37:41.546Z,16.20
2018-09-10T23:42:44.815Z,16.20
2018-09-10T23:47:48.076Z,16.10
2018-09-10T23:52:51.355Z,15.90
2018-09-10T23:57:54.652Z,15.90
